createdAt,value
2018-07-15T00:01:53.576Z,3.70
2018-07-15T00:04:22.256Z,3.90
2018-07-15T00:06:50.775Z,3.57
2018-07-15T00:09:20.155Z,3.70
2018-07-15T00:11:48.806Z,3.63
2018-07-15T00:14:17.805Z,3.90
2018-07-15T00:16:46.824Z,3.70
2018-07-15T00:19:16.003Z,3.50
2018-07-15T00:21:45.663Z,3.50
2018-07-15T00:24:14.587Z,3.73
2018-07-15T00:26:43.743Z,3.90
2018-07-15T00:29:13.844Z,3.57
2018-07-15T00:31:42.912Z,3.80
2018-07-15T00:34:12.198Z,3.80
2018-07-15T00:36:44.080Z,4.17
2018-07-15T00:39:13.280Z,3.80
2018-07-15T00:41:42.623Z,3.70
2018-07-15T00:44:11.708Z,4.10
2018-07-15T00:46:40.806Z,3.47
2018-07-15T00:49:09.765Z,3.57
2018-07-15T00:51:38.444Z,3.70
2018-07-15T00:54:07.544Z,3.70
2018-07-15T00:56:36.678Z,4.30
2018-07-15T00:59:06.079Z,3.83
2018-07-15T01:01:35.080Z,3.83
2018-07-15T01:04:04.349Z,3.97
2018-07-15T01:06:33.631Z,3.80
2018-07-15T01:09:03.605Z,3.63
2018-07-15T01:11:33.452Z,3.57
2018-07-15T01:14:02.576Z,3.87
2018-07-15T01:16:31.724Z,4.03
2018-07-15T01:19:00.740Z,4.03
2018-07-15T01:21:29.820Z,4.00
2018-07-15T01:23:58.659Z,3.73
2018-07-15T01:26:28.020Z,3.60
2018-07-15T01:28:56.779Z,3.90
2018-07-15T01:31:25.671Z,3.73
2018-07-15T01:33:55.016Z,3.73
2018-07-15T01:36:24.128Z,3.80
2018-07-15T01:38:54.564Z,3.90
2018-07-15T01:41:23.961Z,3.30
2018-07-15T01:43:53.071Z,3.63
2018-07-15T01:46:22.452Z,3.37
2018-07-15T01:48:50.975Z,3.67
2018-07-15T01:51:20.876Z,4.10
2018-07-15T01:53:49.779Z,4.28
2018-07-15T01:56:18.961Z,4.00
2018-07-15T01:58:48.103Z,3.70
2018-07-15T02:01:16.890Z,4.07
2018-07-15T02:03:45.895Z,3.80
2018-07-15T02:06:15.056Z,4.20
2018-07-15T02:08:43.984Z,3.80
2018-07-15T02:11:13.251Z,3.63
2018-07-15T02:13:42.681Z,3.87
2018-07-15T02:16:11.813Z,4.30
2018-07-15T02:18:44.752Z,3.90
2018-07-15T02:21:14.153Z,3.97
2018-07-15T02:23:42.818Z,4.40
2018-07-15T02:26:11.859Z,4.20
2018-07-15T02:28:40.523Z,4.23
2018-07-15T02:31:09.680Z,4.13
2018-07-15T02:33:39.036Z,3.90
2018-07-15T02:36:07.764Z,3.77
2018-07-15T02:38:36.611Z,4.23
2018-07-15T02:41:06.496Z,4.00
2018-07-15T02:43:36.460Z,4.33
2018-07-15T02:46:05.537Z,3.87
2018-07-15T02:48:34.552Z,4.23
2018-07-15T02:51:03.379Z,3.80
2018-07-15T02:53:32.721Z,4.60
2018-07-15T02:56:01.024Z,3.97
2018-07-15T02:58:31.580Z,3.80
2018-07-15T03:01:00.792Z,4.60
2018-07-15T03:03:29.789Z,4.10
2018-07-15T03:05:59.012Z,3.93
2018-07-15T03:08:28.174Z,4.43
2018-07-15T03:10:57.294Z,4.33
2018-07-15T03:13:26.391Z,4.40
2018-07-15T03:15:55.668Z,4.23
2018-07-15T03:18:25.284Z,4.57
2018-07-15T03:20:54.688Z,4.00
2018-07-15T03:23:24.195Z,4.30
2018-07-15T03:25:53.268Z,4.10
2018-07-15T03:28:22.116Z,4.27
2018-07-15T03:30:50.909Z,4.40
2018-07-15T03:33:20.159Z,5.13
2018-07-15T03:35:48.708Z,4.27
2018-07-15T03:38:17.796Z,4.57
2018-07-15T03:40:47.047Z,4.00
2018-07-15T03:43:15.795Z,4.40
2018-07-15T03:45:45.026Z,4.77
2018-07-15T03:48:13.865Z,5.17
2018-07-15T03:50:42.569Z,4.30
2018-07-15T03:53:11.500Z,4.90
2018-07-15T03:55:39.922Z,4.70
2018-07-15T03:58:08.335Z,4.40
2018-07-15T04:00:37.323Z,4.60
2018-07-15T04:03:06.931Z,4.17
2018-07-15T04:05:36.053Z,4.37
2018-07-15T04:08:05.144Z,4.43
2018-07-15T04:10:33.824Z,4.37
2018-07-15T04:13:02.878Z,4.63
2018-07-15T04:15:31.812Z,4.47
2018-07-15T04:18:05.036Z,4.50
2018-07-15T04:20:35.844Z,4.13
2018-07-15T04:23:05.812Z,4.63
2018-07-15T04:25:35.440Z,4.17
2018-07-15T04:28:04.858Z,4.23
2018-07-15T04:30:34.059Z,4.13
2018-07-15T04:33:02.827Z,4.03
2018-07-15T04:35:31.722Z,3.90
2018-07-15T04:38:00.512Z,4.37
2018-07-15T04:40:29.472Z,3.93
2018-07-15T04:42:58.139Z,4.00
2018-07-15T04:45:27.156Z,3.83
2018-07-15T04:47:55.440Z,4.03
2018-07-15T04:50:24.487Z,3.70
2018-07-15T04:52:53.444Z,4.08
2018-07-15T04:55:22.319Z,4.00
2018-07-15T04:57:51.423Z,3.90
2018-07-15T05:00:20.320Z,3.77
2018-07-15T05:02:49.245Z,3.70
2018-07-15T05:05:18.528Z,4.07
2018-07-15T05:07:47.587Z,4.17
2018-07-15T05:10:16.788Z,4.00
2018-07-15T05:12:45.740Z,4.10
2018-07-15T05:15:14.726Z,4.40
2018-07-15T05:17:44.416Z,4.53
2018-07-15T05:20:13.260Z,4.30
2018-07-15T05:22:42.731Z,4.10
2018-07-15T05:25:11.259Z,4.27
2018-07-15T05:27:40.234Z,4.10
2018-07-15T05:30:09.437Z,3.93
2018-07-15T05:32:38.255Z,4.10
2018-07-15T05:35:07.535Z,4.37
2018-07-15T05:37:36.913Z,4.10
2018-07-15T05:40:05.713Z,4.30
2018-07-15T05:42:34.884Z,3.90
2018-07-15T05:45:04.116Z,3.77
2018-07-15T05:47:32.678Z,4.30
2018-07-15T05:50:01.500Z,4.92
2018-07-15T05:52:31.115Z,4.10
2018-07-15T05:55:00.729Z,4.35
2018-07-15T05:57:30.251Z,4.30
2018-07-15T05:59:58.932Z,4.07
2018-07-15T06:02:28.346Z,4.00
2018-07-15T06:04:58.572Z,4.90
2018-07-15T06:07:27.571Z,4.00
2018-07-15T06:09:56.742Z,4.37
2018-07-15T06:12:25.772Z,4.15
2018-07-15T06:14:55.008Z,4.22
2018-07-15T06:17:24.056Z,4.47
2018-07-15T06:19:53.252Z,3.90
2018-07-15T06:22:22.500Z,4.03
2018-07-15T06:24:51.888Z,4.08
2018-07-15T06:27:21.126Z,4.47
2018-07-15T06:29:50.341Z,4.08
2018-07-15T06:32:19.363Z,4.58
2018-07-15T06:34:48.671Z,4.60
2018-07-15T06:37:17.635Z,4.15
2018-07-15T06:39:47.007Z,4.22
2018-07-15T06:42:15.975Z,4.65
2018-07-15T06:44:45.225Z,4.17
2018-07-15T06:47:14.384Z,5.15
2018-07-15T06:49:44.362Z,4.40
2018-07-15T06:52:12.956Z,4.20
2018-07-15T07:03:55.472Z,4.58
2018-07-15T07:06:24.068Z,4.55
2018-07-15T07:08:53.533Z,4.60
2018-07-15T07:11:22.524Z,4.08
2018-07-15T07:13:51.694Z,4.47
2018-07-15T07:16:21.225Z,4.72
2018-07-15T07:18:49.924Z,4.30
2018-07-15T07:21:18.847Z,4.03
2018-07-15T07:23:48.015Z,4.10
2018-07-15T07:26:17.760Z,4.03
2018-07-15T07:28:47.692Z,4.03
2018-07-15T07:31:16.992Z,4.40
2018-07-15T07:33:45.864Z,4.28
2018-07-15T07:36:15.181Z,4.40
2018-07-15T07:38:44.095Z,4.20
2018-07-15T07:41:12.826Z,4.35
2018-07-15T07:43:41.911Z,4.10
2018-07-15T07:46:12.242Z,4.40
2018-07-15T07:48:41.235Z,4.53
2018-07-15T07:51:10.561Z,4.17
2018-07-15T07:53:39.382Z,4.00
2018-07-15T07:56:08.322Z,4.22
2018-07-15T07:58:37.615Z,3.85
2018-07-15T08:01:06.366Z,3.72
2018-07-15T08:03:35.941Z,4.00
2018-07-15T08:06:05.930Z,3.98
2018-07-15T08:08:35.776Z,4.08
2018-07-15T08:11:04.723Z,3.90
2018-07-15T08:13:34.182Z,4.22
2018-07-15T08:16:03.323Z,3.98
2018-07-15T08:18:32.449Z,3.90
2018-07-15T08:21:01.324Z,3.87
2018-07-15T08:23:30.507Z,3.77
2018-07-15T08:25:59.499Z,3.75
2018-07-15T08:28:28.699Z,3.70
2018-07-15T08:31:02.701Z,3.62
2018-07-15T08:33:31.810Z,3.90
2018-07-15T08:36:00.452Z,3.52
2018-07-15T08:38:29.376Z,3.60
2018-07-15T08:40:58.273Z,4.20
2018-07-15T08:43:27.625Z,3.87
2018-07-15T08:45:56.332Z,4.17
2018-07-15T08:48:25.878Z,4.00
2018-07-15T08:50:54.724Z,3.65
2018-07-15T08:53:23.311Z,3.98
2018-07-15T08:55:52.312Z,3.85
2018-07-15T08:58:21.663Z,3.72
2018-07-15T09:00:50.783Z,4.00
2018-07-15T09:03:20.186Z,3.98
2018-07-15T09:05:49.344Z,3.77
2018-07-15T09:08:18.648Z,3.70
2018-07-15T09:10:47.632Z,3.80
2018-07-15T09:13:17.098Z,3.55
2018-07-15T09:15:46.099Z,3.77
2018-07-15T09:18:15.275Z,3.70
2018-07-15T09:20:45.284Z,4.00
2018-07-15T09:23:14.297Z,4.22
2018-07-15T09:25:43.572Z,3.87
2018-07-15T09:28:12.328Z,4.00
2018-07-15T09:30:41.416Z,3.80
2018-07-15T09:33:10.204Z,3.60
2018-07-15T09:35:39.454Z,3.37
2018-07-15T09:38:08.616Z,3.47
2018-07-15T09:40:37.774Z,3.30
2018-07-15T09:43:06.383Z,3.72
2018-07-15T09:45:35.651Z,3.45
2018-07-15T09:48:04.344Z,3.60
2018-07-15T09:50:34.291Z,3.58
2018-07-15T09:53:03.411Z,3.50
2018-07-15T09:55:32.592Z,3.40
2018-07-15T09:58:01.980Z,3.90
2018-07-15T10:00:36.031Z,3.75
2018-07-15T10:03:05.491Z,3.83
2018-07-15T10:05:34.748Z,3.62
2018-07-15T10:08:04.100Z,3.80
2018-07-15T10:10:32.868Z,3.60
2018-07-15T10:13:02.149Z,4.37
2018-07-15T10:15:31.079Z,4.10
2018-07-15T10:18:00.151Z,3.75
2018-07-15T10:20:29.523Z,3.90
2018-07-15T10:22:58.576Z,3.67
2018-07-15T10:25:28.092Z,3.80
2018-07-15T10:27:57.548Z,3.90
2018-07-15T10:30:26.472Z,4.25
2018-07-15T10:32:55.260Z,3.98
2018-07-15T10:35:24.350Z,4.25
2018-07-15T10:37:53.353Z,3.67
2018-07-15T10:40:22.669Z,3.72
2018-07-15T10:42:52.126Z,3.72
2018-07-15T10:45:20.852Z,3.87
2018-07-15T10:47:49.868Z,3.70
2018-07-15T10:50:19.011Z,4.22
2018-07-15T10:52:47.778Z,3.40
2018-07-15T10:55:16.827Z,3.75
2018-07-15T10:57:45.995Z,4.08
2018-07-15T11:00:14.797Z,3.40
2018-07-15T11:02:43.996Z,3.20
2018-07-15T11:05:12.733Z,3.72
2018-07-15T11:07:41.828Z,3.58
2018-07-15T11:10:11.004Z,3.45
2018-07-15T11:12:40.056Z,3.72
2018-07-15T11:15:09.060Z,3.70
2018-07-15T11:17:37.837Z,3.27
2018-07-15T11:20:06.902Z,3.30
2018-07-15T11:22:35.909Z,3.70
2018-07-15T11:25:04.567Z,3.60
2018-07-15T11:27:33.241Z,3.50
2018-07-15T11:30:02.268Z,3.45
2018-07-15T11:32:31.197Z,3.20
2018-07-15T11:35:00.371Z,3.00
2018-07-15T11:37:29.127Z,3.10
2018-07-15T11:39:58.359Z,3.27
2018-07-15T11:42:27.586Z,3.65
2018-07-15T11:44:56.602Z,3.12
2018-07-15T11:47:26.315Z,3.33
2018-07-15T11:49:55.284Z,3.33
2018-07-15T11:52:23.980Z,3.30
2018-07-15T11:54:53.203Z,3.40
2018-07-15T11:57:22.491Z,3.70
2018-07-15T11:59:51.273Z,3.50
2018-07-15T12:02:20.872Z,3.70
2018-07-15T12:04:50.176Z,4.00
2018-07-15T12:07:19.183Z,3.80
2018-07-15T12:09:48.507Z,3.60
2018-07-15T12:12:17.404Z,3.80
2018-07-15T12:14:46.615Z,3.80
2018-07-15T12:17:16.265Z,3.80
2018-07-15T12:19:45.296Z,4.17
2018-07-15T12:22:14.319Z,3.90
2018-07-15T12:24:43.592Z,3.47
2018-07-15T12:27:12.860Z,3.75
2018-07-15T12:29:41.255Z,3.80
2018-07-15T12:32:10.484Z,4.10
2018-07-15T12:34:39.889Z,3.67
2018-07-15T12:37:09.059Z,3.67
2018-07-15T12:39:38.196Z,3.67
2018-07-15T12:42:07.234Z,3.85
2018-07-15T12:44:36.576Z,3.77
2018-07-15T12:47:05.714Z,3.75
2018-07-15T12:49:34.659Z,3.10
2018-07-15T12:52:03.444Z,3.55
2018-07-15T12:54:32.549Z,4.20
2018-07-15T12:57:01.228Z,3.85
2018-07-15T12:59:31.827Z,3.70
2018-07-15T13:02:01.136Z,4.12
2018-07-15T13:04:30.624Z,3.98
2018-07-15T13:06:59.516Z,3.60
2018-07-15T13:09:28.556Z,3.50
2018-07-15T13:11:57.104Z,3.77
2018-07-15T13:14:25.963Z,4.00
2018-07-15T13:16:54.660Z,3.65
2018-07-15T13:19:23.924Z,3.60
2018-07-15T13:21:53.707Z,3.80
2018-07-15T13:24:22.725Z,3.95
2018-07-15T13:26:51.723Z,3.50
2018-07-15T13:29:20.688Z,3.77
2018-07-15T13:31:49.962Z,3.75
2018-07-15T13:34:19.326Z,3.47
2018-07-15T13:36:47.915Z,3.98
2018-07-15T13:39:17.028Z,3.87
2018-07-15T13:41:45.514Z,3.80
2018-07-15T13:44:14.421Z,4.15
2018-07-15T13:46:43.780Z,4.17
2018-07-15T13:49:12.420Z,3.50
2018-07-15T13:51:41.333Z,3.92
2018-07-15T13:54:10.563Z,3.80
2018-07-15T13:56:39.548Z,3.95
2018-07-15T13:59:08.740Z,4.20
2018-07-15T14:01:38.552Z,4.05
2018-07-15T14:04:07.863Z,4.70
2018-07-15T14:06:36.805Z,4.85
2018-07-15T14:09:06.267Z,5.03
2018-07-15T14:11:34.788Z,4.28
2018-07-15T14:14:03.776Z,4.47
2018-07-15T14:16:32.948Z,7.97
2018-07-15T14:19:02.002Z,5.22
2018-07-15T14:21:31.314Z,5.50
2018-07-15T14:24:00.788Z,5.65
2018-07-15T14:26:29.484Z,5.42
2018-07-15T14:28:58.524Z,3.70
2018-07-15T14:31:27.911Z,3.90
2018-07-15T14:33:56.683Z,3.83
2018-07-15T14:36:25.980Z,4.08
2018-07-15T14:38:55.832Z,3.90
2018-07-15T14:41:24.791Z,3.62
2018-07-15T14:43:54.415Z,4.10
2018-07-15T14:46:23.408Z,3.70
2018-07-15T14:48:52.457Z,3.35
2018-07-15T14:51:21.664Z,3.30
2018-07-15T14:53:50.314Z,3.45
2018-07-15T14:56:19.102Z,3.87
2018-07-15T14:58:48.700Z,3.75
2018-07-15T15:01:19.364Z,3.60
2018-07-15T15:03:48.540Z,3.90
2018-07-15T15:06:17.347Z,3.45
2018-07-15T15:08:46.283Z,3.70
2018-07-15T15:11:15.488Z,3.92
2018-07-15T15:13:45.376Z,3.50
2018-07-15T15:16:14.981Z,3.60
2018-07-15T15:18:44.227Z,3.10
2018-07-15T15:21:12.756Z,3.35
2018-07-15T15:23:41.783Z,3.60
2018-07-15T15:26:11.273Z,3.22
2018-07-15T15:28:39.836Z,3.30
2018-07-15T15:31:08.646Z,3.50
2018-07-15T15:33:37.833Z,3.17
2018-07-15T15:36:07.612Z,3.25
2018-07-15T15:38:36.605Z,3.58
2018-07-15T15:41:05.852Z,3.62
2018-07-15T15:43:34.872Z,3.60
2018-07-15T15:46:03.425Z,3.20
2018-07-15T15:48:32.712Z,3.35
2018-07-15T15:51:02.376Z,3.30
2018-07-15T15:53:31.971Z,3.05
2018-07-15T15:56:01.186Z,3.62
2018-07-15T15:58:31.284Z,3.15
2018-07-15T16:01:00.460Z,3.70
2018-07-15T16:03:29.835Z,3.75
2018-07-15T16:05:58.998Z,3.77
2018-07-15T16:08:29.015Z,3.87
2018-07-15T16:10:58.064Z,3.42
2018-07-15T16:13:27.252Z,3.08
2018-07-15T16:15:56.447Z,3.47
2018-07-15T16:18:26.231Z,3.60
2018-07-15T16:20:56.089Z,3.55
2018-07-15T16:23:25.521Z,3.67
2018-07-15T16:25:54.463Z,3.60
2018-07-15T16:28:23.708Z,3.80
2018-07-15T16:30:52.363Z,3.60
2018-07-15T16:33:21.575Z,3.60
2018-07-15T16:35:50.504Z,3.20
2018-07-15T16:38:19.451Z,3.37
2018-07-15T16:40:48.579Z,3.30
2018-07-15T16:43:17.748Z,3.20
2018-07-15T16:45:47.364Z,3.22
2018-07-15T16:48:16.523Z,3.42
2018-07-15T16:50:44.814Z,3.12
2018-07-15T16:53:14.152Z,3.22
2018-07-15T16:55:43.191Z,3.00
2018-07-15T16:58:11.884Z,3.58
2018-07-15T17:00:40.624Z,3.50
2018-07-15T17:03:09.952Z,2.95
2018-07-15T17:05:39.108Z,3.42
2018-07-15T17:08:07.920Z,3.05
2018-07-15T17:10:36.741Z,3.30
2018-07-15T17:13:05.547Z,3.58
2018-07-15T17:15:34.730Z,3.67
2018-07-15T17:18:03.984Z,3.27
2018-07-15T17:20:33.006Z,3.58
2018-07-15T17:23:02.119Z,2.90
2018-07-15T17:25:31.312Z,3.10
2018-07-15T17:28:02.315Z,4.15
2018-07-15T17:30:31.887Z,3.30
2018-07-15T17:33:00.920Z,3.58
2018-07-15T17:35:30.367Z,3.52
2018-07-15T17:37:59.675Z,3.58
2018-07-15T17:40:28.891Z,3.72
2018-07-15T17:42:57.795Z,3.30
2018-07-15T17:45:26.475Z,3.02
2018-07-15T17:47:55.543Z,3.37
2018-07-15T17:50:26.015Z,3.30
2018-07-15T17:52:55.060Z,3.60
2018-07-15T17:55:24.188Z,3.42
2018-07-15T17:57:53.292Z,3.65
2018-07-15T18:00:22.291Z,3.35
2018-07-15T18:02:51.309Z,3.80
2018-07-15T18:05:20.392Z,3.40
2018-07-15T18:07:49.620Z,3.55
2018-07-15T18:10:18.715Z,3.50
2018-07-15T18:12:47.736Z,3.17
2018-07-15T18:15:17.092Z,3.50
2018-07-15T18:17:46.102Z,3.47
2018-07-15T18:20:16.008Z,4.10
2018-07-15T18:22:44.908Z,4.20
2018-07-15T18:25:14.208Z,3.92
2018-07-15T18:27:43.833Z,3.87
2018-07-15T18:30:13.044Z,3.80
2018-07-15T18:32:41.756Z,3.72
2018-07-15T18:35:10.882Z,3.95
2018-07-15T18:37:39.552Z,3.62
2018-07-15T18:40:08.636Z,3.83
2018-07-15T18:42:37.448Z,3.60
2018-07-15T18:45:07.158Z,4.00
2018-07-15T18:47:35.663Z,3.55
2018-07-15T18:50:04.623Z,3.52
2018-07-15T18:52:33.696Z,3.45
2018-07-15T18:55:02.732Z,3.92
2018-07-15T18:57:31.797Z,3.72
2018-07-15T19:00:00.883Z,3.52
2018-07-15T19:02:30.970Z,3.50
2018-07-15T19:05:00.212Z,3.83
2018-07-15T19:07:30.036Z,3.52
2018-07-15T19:09:58.756Z,3.90
2018-07-15T19:12:27.635Z,3.50
2018-07-15T19:14:56.752Z,3.47
2018-07-15T19:17:25.499Z,3.90
2018-07-15T19:19:54.669Z,3.98
2018-07-15T19:22:24.186Z,3.60
2018-07-15T19:24:52.605Z,3.40
2018-07-15T19:27:22.115Z,3.60
2018-07-15T19:29:50.848Z,3.90
2018-07-15T19:32:19.492Z,3.87
2018-07-15T19:34:48.419Z,3.60
2018-07-15T19:37:17.328Z,4.05
2018-07-15T19:39:46.813Z,3.67
2018-07-15T19:42:15.925Z,4.05
2018-07-15T19:44:45.240Z,4.20
2018-07-15T19:47:14.188Z,4.22
2018-07-15T19:49:43.573Z,4.03
2018-07-15T19:52:12.680Z,3.62
2018-07-15T19:54:42.132Z,3.95
2018-07-15T19:57:10.752Z,3.87
2018-07-15T19:59:40.412Z,3.90
2018-07-15T20:02:09.225Z,4.28
2018-07-15T20:04:38.477Z,3.80
2018-07-15T20:07:07.412Z,4.05
2018-07-15T20:09:36.420Z,3.60
2018-07-15T20:12:05.076Z,3.52
2018-07-15T20:14:34.268Z,4.20
2018-07-15T20:17:03.000Z,3.80
2018-07-15T20:19:32.368Z,4.08
2018-07-15T20:22:01.332Z,4.50
2018-07-15T20:24:30.069Z,4.12
2018-07-15T20:27:00.148Z,4.17
2018-07-15T20:29:30.292Z,3.83
2018-07-15T20:31:59.244Z,3.95
2018-07-15T20:34:28.435Z,3.80
2018-07-15T20:36:57.513Z,4.25
2018-07-15T20:39:26.766Z,3.92
2018-07-15T20:41:56.320Z,4.25
2018-07-15T20:44:25.342Z,4.03
2018-07-15T20:46:54.598Z,3.72
2018-07-15T20:49:23.348Z,4.55
2018-07-15T20:51:52.014Z,4.30
2018-07-15T20:54:21.316Z,3.83
2018-07-15T20:56:50.112Z,4.40
2018-07-15T20:59:19.335Z,4.20
2018-07-15T21:01:48.456Z,3.98
2018-07-15T21:04:17.488Z,4.03
2018-07-15T21:06:46.155Z,3.95
2018-07-15T21:09:15.422Z,3.60
2018-07-15T21:11:44.072Z,4.60
2018-07-15T21:14:12.995Z,3.77
2018-07-15T21:16:43.075Z,3.83
2018-07-15T21:19:12.449Z,4.28
2018-07-15T21:21:41.032Z,3.90
2018-07-15T21:24:10.026Z,3.95
2018-07-15T21:26:39.644Z,3.83
2018-07-15T21:29:08.948Z,3.65
2018-07-15T21:31:37.642Z,4.37
2018-07-15T21:34:07.140Z,4.08
2018-07-15T21:36:36.391Z,4.03
2018-07-15T21:39:06.757Z,4.25
2018-07-15T21:41:35.263Z,3.90
2018-07-15T21:44:04.447Z,3.90
2018-07-15T21:46:33.450Z,3.98
2018-07-15T21:49:02.636Z,4.20
2018-07-15T21:51:32.764Z,4.42
2018-07-15T21:54:01.832Z,3.98
2018-07-15T21:56:30.817Z,3.80
2018-07-15T21:58:59.657Z,4.10
2018-07-15T22:01:35.766Z,4.10
2018-07-15T22:04:04.292Z,4.60
2018-07-15T22:06:39.632Z,4.97
2018-07-15T22:09:14.000Z,4.80
2018-07-15T22:11:42.859Z,4.20
2018-07-15T22:14:11.848Z,4.03
2018-07-15T22:16:40.476Z,4.72
2018-07-15T22:19:09.432Z,4.40
2018-07-15T22:21:38.164Z,4.45
2018-07-15T22:24:06.652Z,4.50
2018-07-15T22:26:36.083Z,5.15
2018-07-15T22:29:05.528Z,5.10
2018-07-15T22:31:34.488Z,5.45
2018-07-15T22:34:03.572Z,5.45
2018-07-15T22:36:32.646Z,5.50
2018-07-15T22:39:01.728Z,5.58
2018-07-15T22:41:30.687Z,5.50
2018-07-15T22:43:59.740Z,5.80
2018-07-15T22:46:29.437Z,5.62
2018-07-15T22:48:58.468Z,6.35
2018-07-15T22:51:27.327Z,6.03
2018-07-15T22:53:56.592Z,5.70
2018-07-15T22:56:25.752Z,5.75
2018-07-15T22:58:55.012Z,5.92
2018-07-15T23:01:23.946Z,5.97
2018-07-15T23:03:52.924Z,5.60
2018-07-15T23:06:22.840Z,5.08
2018-07-15T23:08:51.708Z,5.37
2018-07-15T23:11:21.016Z,5.30
2018-07-15T23:13:50.144Z,5.58
2018-07-15T23:16:19.660Z,5.20
2018-07-15T23:18:48.444Z,4.95
2018-07-15T23:21:18.286Z,5.33
2018-07-15T23:23:47.779Z,5.10
2018-07-15T23:26:17.048Z,5.22
2018-07-15T23:28:45.676Z,4.60
2018-07-15T23:31:14.797Z,5.33
2018-07-15T23:33:44.189Z,5.03
2018-07-15T23:36:13.177Z,5.40
2018-07-15T23:38:42.354Z,5.10
2018-07-15T23:41:11.481Z,4.70
2018-07-15T23:43:40.594Z,5.08
2018-07-15T23:46:09.796Z,5.30
2018-07-15T23:48:40.598Z,5.08
2018-07-15T23:51:09.551Z,5.62
2018-07-15T23:53:39.216Z,5.50
2018-07-15T23:56:08.285Z,4.80
2018-07-15T23:58:37.556Z,4.78
